sensor_id;sensor_type;location;lat;lon;timestamp;temperature;humidity
18930;DHT22;43305;52.186;5.598;2024-01-15T00:01:14;1.60;99.90
18930;DHT22;43305;52.186;5.598;2024-01-15T00:03:41;1.50;99.90
18930;DHT22;43305;52.186;5.598;2024-01-15T00:06:08;1.60;99.90
18930;DHT22;43305;52.186;5.598;2024-01-15T00:08:35;1.60;99.90
18930;DHT22;43305;52.186;5.598;2024-01-15T00:11:01;1.60;99.90
18930;DHT22;43305;52.186;5.598;2024-01-15T00:13:31;1.60;99.90
18930;DHT22;43305;52.186;5.598;2024-01-15T00:16:01;1.60;99.90
18930;DHT22;43305;52.186;5.598;2024-01-15T00:18:30;1.60;99.90
18930;DHT22;43305;52.186;5.598;2024-01-15T00:20:58;1.50;99.90
18930;DHT22;43305;52.186;5.598;2024-01-15T00:23:24;1.50;99.90
18930;DHT22;43305;52.186;5.598;2024-01-15T00:25:51;1.50;99.90
18930;DHT22;43305;52.186;5.598;2024-01-15T00:28:18;1.40;99.90
18930;DHT22;43305;52.186;5.598;2024-01-15T00:30:45;1.40;99.90
18930;DHT22;43305;52.186;5.598;2024-01-15T00:33:13;1.40;99.90
18930;DHT22;43305;52.186;5.598;2024-01-15T00:35:40;1.30;99.90
18930;DHT22;43305;52.186;5.598;2024-01-15T00:38:07;1.30;99.90
18930;DHT22;43305;52.186;5.598;2024-01-15T00:40:34;1.30;99.90
18930;DHT22;43305;52.186;5.598;2024-01-15T00:43:01;1.30;99.90
18930;DHT22;43305;52.186;5.598;2024-01-15T00:45:29;1.30;99.90
18930;DHT22;43305;52.186;5.598;2024-01-15T00:47:55;1.30;99.90
18930;DHT22;43305;52.186;5.598;2024-01-15T00:50:26;1.20;99.90
18930;DHT22;43305;52.186;5.598;2024-01-15T00:52:53;1.20;99.90
18930;DHT22;43305;52.186;5.598;2024-01-15T00:55:20;1.20;99.90
18930;DHT22;43305;52.186;5.598;2024-01-15T00:57:47;1.10;99.90
18930;DHT22;43305;52.186;5.598;2024-01-15T01:00:14;1.10;99.90
18930;DHT22;43305;52.186;5.598;2024-01-15T01:02:41;1.10;99.90
18930;DHT22;43305;52.186;5.598;2024-01-15T01:05:08;1.00;99.90
18930;DHT22;43305;52.186;5.598;2024-01-15T01:07:36;1.00;99.90
18930;DHT22;43305;52.186;5.598;2024-01-15T01:10:04;1.00;99.90
18930;DHT22;43305;52.186;5.598;2024-01-15T01:12:32;1.00;99.90
18930;DHT22;43305;52.186;5.598;2024-01-15T01:14:59;1.00;99.90
18930;DHT22;43305;52.186;5.598;2024-01-15T01:17:26;1.10;99.90
18930;DHT22;43305;52.186;5.598;2024-01-15T01:19:53;1.00;99.90
18930;DHT22;43305;52.186;5.598;2024-01-15T01:22:19;1.00;99.90
18930;DHT22;43305;52.186;5.598;2024-01-15T01:24:48;1.10;99.90
18930;DHT22;43305;52.186;5.598;2024-01-15T01:27:14;1.10;99.90
18930;DHT22;43305;52.186;5.598;2024-01-15T01:29:41;1.10;99.90
18930;DHT22;43305;52.186;5.598;2024-01-15T01:32:08;1.00;99.90
18930;DHT22;43305;52.186;5.598;2024-01-15T01:34:40;1.10;99.90
18930;DHT22;43305;52.186;5.598;2024-01-15T01:37:07;1.10;99.90
18930;DHT22;43305;52.186;5.598;2024-01-15T01:39:34;1.10;99.90
18930;DHT22;43305;52.186;5.598;2024-01-15T01:42:03;1.20;99.90
18930;DHT22;43305;52.186;5.598;2024-01-15T01:44:30;1.20;99.90
18930;DHT22;43305;52.186;5.598;2024-01-15T01:46:58;1.30;99.90
18930;DHT22;43305;52.186;5.598;2024-01-15T01:49:26;1.20;99.90
18930;DHT22;43305;52.186;5.598;2024-01-15T01:51:56;1.20;99.90
18930;DHT22;43305;52.186;5.598;2024-01-15T01:54:24;1.30;99.90
18930;DHT22;43305;52.186;5.598;2024-01-15T01:56:51;1.20;99.90
18930;DHT22;43305;52.186;5.598;2024-01-15T01:59:20;1.20;99.90
18930;DHT22;43305;52.186;5.598;2024-01-15T02:01:49;1.20;99.90
18930;DHT22;43305;52.186;5.598;2024-01-15T02:04:16;1.20;99.90
18930;DHT22;43305;52.186;5.598;2024-01-15T02:06:43;1.10;99.90
18930;DHT22;43305;52.186;5.598;2024-01-15T02:09:11;1.10;99.90
18930;DHT22;43305;52.186;5.598;2024-01-15T02:11:40;1.00;99.90
18930;DHT22;43305;52.186;5.598;2024-01-15T02:14:08;1.10;99.90
18930;DHT22;43305;52.186;5.598;2024-01-15T02:16:37;1.10;99.90
18930;DHT22;43305;52.186;5.598;2024-01-15T02:19:04;1.10;99.90
18930;DHT22;43305;52.186;5.598;2024-01-15T02:21:31;1.10;99.90
18930;DHT22;43305;52.186;5.598;2024-01-15T02:24:01;1.10;99.90
18930;DHT22;43305;52.186;5.598;2024-01-15T02:26:30;1.20;99.90
18930;DHT22;43305;52.186;5.598;2024-01-15T02:29:01;1.20;99.90
18930;DHT22;43305;52.186;5.598;2024-01-15T02:31:31;1.20;99.90
18930;DHT22;43305;52.186;5.598;2024-01-15T02:33:57;1.20;99.90
18930;DHT22;43305;52.186;5.598;2024-01-15T02:36:24;1.20;99.90
18930;DHT22;43305;52.186;5.598;2024-01-15T02:38:51;1.20;99.90
18930;DHT22;43305;52.186;5.598;2024-01-15T02:41:19;1.20;99.90
18930;DHT22;43305;52.186;5.598;2024-01-15T02:43:46;1.20;99.90
18930;DHT22;43305;52.186;5.598;2024-01-15T02:46:13;1.10;99.90
18930;DHT22;43305;52.186;5.598;2024-01-15T02:48:41;1.10;99.90
18930;DHT22;43305;52.186;5.598;2024-01-15T02:51:08;1.10;99.90
18930;DHT22;43305;52.186;5.598;2024-01-15T02:53:35;1.10;99.90
18930;DHT22;43305;52.186;5.598;2024-01-15T02:56:06;1.10;99.90
18930;DHT22;43305;52.186;5.598;2024-01-15T02:58:35;1.20;99.90
18930;DHT22;43305;52.186;5.598;2024-01-15T03:01:02;1.10;99.90
18930;DHT22;43305;52.186;5.598;2024-01-15T03:03:29;1.10;99.90
18930;DHT22;43305;52.186;5.598;2024-01-15T03:05:56;1.20;99.90
18930;DHT22;43305;52.186;5.598;2024-01-15T03:08:23;1.20;99.90
18930;DHT22;43305;52.186;5.598;2024-01-15T03:10:49;1.10;99.90
18930;DHT22;43305;52.186;5.598;2024-01-15T03:13:16;1.20;99.90
18930;DHT22;43305;52.186;5.598;2024-01-15T03:15:46;1.20;99.90
18930;DHT22;43305;52.186;5.598;2024-01-15T03:18:13;1.20;99.90
18930;DHT22;43305;52.186;5.598;2024-01-15T03:20:39;1.20;99.90
18930;DHT22;43305;52.186;5.598;2024-01-15T03:23:06;1.30;99.90
18930;DHT22;43305;52.186;5.598;2024-01-15T03:25:33;1.30;99.90
18930;DHT22;43305;52.186;5.598;2024-01-15T03:28:00;1.40;99.90
18930;DHT22;43305;52.186;5.598;2024-01-15T03:30:27;1.40;99.90
18930;DHT22;43305;52.186;5.598;2024-01-15T03:32:55;1.40;99.90
18930;DHT22;43305;52.186;5.598;2024-01-15T03:35:22;1.50;99.90
18930;DHT22;43305;52.186;5.598;2024-01-15T03:37:49;1.50;99.90
18930;DHT22;43305;52.186;5.598;2024-01-15T03:40:16;1.50;99.90
18930;DHT22;43305;52.186;5.598;2024-01-15T03:42:43;1.50;99.90
18930;DHT22;43305;52.186;5.598;2024-01-15T03:45:10;1.50;99.90
18930;DHT22;43305;52.186;5.598;2024-01-15T03:47:37;1.50;99.90
18930;DHT22;43305;52.186;5.598;2024-01-15T03:50:05;1.50;99.90
18930;DHT22;43305;52.186;5.598;2024-01-15T03:52:35;1.40;99.90
18930;DHT22;43305;52.186;5.598;2024-01-15T03:55:05;1.40;99.90
18930;DHT22;43305;52.186;5.598;2024-01-15T03:57:35;1.40;99.90
18930;DHT22;43305;52.186;5.598;2024-01-15T04:00:06;1.40;99.90
18930;DHT22;43305;52.186;5.598;2024-01-15T04:02:33;1.40;99.90
18930;DHT22;43305;52.186;5.598;2024-01-15T04:05:00;1.40;99.90
18930;DHT22;43305;52.186;5.598;2024-01-15T04:07:29;1.30;99.90
18930;DHT22;43305;52.186;5.598;2024-01-15T04:09:55;1.30;99.90
18930;DHT22;43305;52.186;5.598;2024-01-15T04:12:22;1.20;99.90
18930;DHT22;43305;52.186;5.598;2024-01-15T04:14:49;1.20;99.90
18930;DHT22;43305;52.186;5.598;2024-01-15T04:17:16;1.20;99.90
18930;DHT22;43305;52.186;5.598;2024-01-15T04:19:43;1.20;99.90
18930;DHT22;43305;52.186;5.598;2024-01-15T04:22:10;1.10;99.90
18930;DHT22;43305;52.186;5.598;2024-01-15T04:24:39;1.10;99.90
18930;DHT22;43305;52.186;5.598;2024-01-15T04:27:06;1.10;99.90
18930;DHT22;43305;52.186;5.598;2024-01-15T04:29:33;1.10;99.90
18930;DHT22;43305;52.186;5.598;2024-01-15T04:32:00;1.00;99.90
18930;DHT22;43305;52.186;5.598;2024-01-15T04:34:27;1.00;99.90
18930;DHT22;43305;52.186;5.598;2024-01-15T04:36:54;1.00;99.90
18930;DHT22;43305;52.186;5.598;2024-01-15T04:39:21;1.00;99.90
18930;DHT22;43305;52.186;5.598;2024-01-15T04:41:49;1.00;99.90
18930;DHT22;43305;52.186;5.598;2024-01-15T04:44:16;1.00;99.90
18930;DHT22;43305;52.186;5.598;2024-01-15T04:46:43;1.00;99.90
18930;DHT22;43305;52.186;5.598;2024-01-15T04:49:10;1.00;99.90
18930;DHT22;43305;52.186;5.598;2024-01-15T04:51:37;1.00;99.90
18930;DHT22;43305;52.186;5.598;2024-01-15T04:54:04;1.00;99.90
18930;DHT22;43305;52.186;5.598;2024-01-15T04:56:31;1.00;99.90
18930;DHT22;43305;52.186;5.598;2024-01-15T04:59:02;1.00;99.90
18930;DHT22;43305;52.186;5.598;2024-01-15T05:01:31;1.00;99.90
18930;DHT22;43305;52.186;5.598;2024-01-15T05:04:00;1.00;99.90
18930;DHT22;43305;52.186;5.598;2024-01-15T05:06:26;1.00;99.90
18930;DHT22;43305;52.186;5.598;2024-01-15T05:08:53;1.00;99.90
18930;DHT22;43305;52.186;5.598;2024-01-15T05:11:20;1.00;99.90
18930;DHT22;43305;52.186;5.598;2024-01-15T05:13:47;1.00;99.90
18930;DHT22;43305;52.186;5.598;2024-01-15T05:16:15;1.10;99.90
18930;DHT22;43305;52.186;5.598;2024-01-15T05:18:42;1.10;99.90
18930;DHT22;43305;52.186;5.598;2024-01-15T05:21:09;1.20;99.90
18930;DHT22;43305;52.186;5.598;2024-01-15T05:23:36;1.20;99.90
18930;DHT22;43305;52.186;5.598;2024-01-15T05:26:04;1.20;99.90
18930;DHT22;43305;52.186;5.598;2024-01-15T05:28:31;1.20;99.90
18930;DHT22;43305;52.186;5.598;2024-01-15T05:30:57;1.20;99.90
18930;DHT22;43305;52.186;5.598;2024-01-15T05:33:26;1.20;99.90
18930;DHT22;43305;52.186;5.598;2024-01-15T05:35:52;1.20;99.90
18930;DHT22;43305;52.186;5.598;2024-01-15T05:38:20;1.30;99.90
18930;DHT22;43305;52.186;5.598;2024-01-15T05:40:47;1.30;99.90
18930;DHT22;43305;52.186;5.598;2024-01-15T05:43:13;1.30;99.90
18930;DHT22;43305;52.186;5.598;2024-01-15T05:45:43;1.30;99.90
18930;DHT22;43305;52.186;5.598;2024-01-15T05:48:10;1.30;99.90
18930;DHT22;43305;52.186;5.598;2024-01-15T05:50:38;1.40;99.90
18930;DHT22;43305;52.186;5.598;2024-01-15T05:53:05;1.30;99.90
18930;DHT22;43305;52.186;5.598;2024-01-15T05:55:32;1.40;99.90
18930;DHT22;43305;52.186;5.598;2024-01-15T05:58:01;1.40;99.90
18930;DHT22;43305;52.186;5.598;2024-01-15T06:00:28;1.40;99.90
18930;DHT22;43305;52.186;5.598;2024-01-15T06:02:55;1.50;99.90
18930;DHT22;43305;52.186;5.598;2024-01-15T06:05:22;1.40;99.90
18930;DHT22;43305;52.186;5.598;2024-01-15T06:07:50;1.40;99.90
18930;DHT22;43305;52.186;5.598;2024-01-15T06:10:17;1.40;99.90
18930;DHT22;43305;52.186;5.598;2024-01-15T06:12:44;1.30;99.90
18930;DHT22;43305;52.186;5.598;2024-01-15T06:15:11;1.20;99.90
18930;DHT22;43305;52.186;5.598;2024-01-15T06:17:38;1.20;99.90
18930;DHT22;43305;52.186;5.598;2024-01-15T06:20:06;1.10;99.90
18930;DHT22;43305;52.186;5.598;2024-01-15T06:22:34;1.10;99.90
18930;DHT22;43305;52.186;5.598;2024-01-15T06:25:04;1.10;99.90
18930;DHT22;43305;52.186;5.598;2024-01-15T06:27:31;1.10;99.90
18930;DHT22;43305;52.186;5.598;2024-01-15T06:29:59;1.10;99.90
18930;DHT22;43305;52.186;5.598;2024-01-15T06:32:26;1.10;99.90
18930;DHT22;43305;52.186;5.598;2024-01-15T06:34:53;1.00;99.90
18930;DHT22;43305;52.186;5.598;2024-01-15T06:37:20;1.00;99.90
18930;DHT22;43305;52.186;5.598;2024-01-15T06:39:46;1.00;99.90
18930;DHT22;43305;52.186;5.598;2024-01-15T06:42:15;1.00;99.90
18930;DHT22;43305;52.186;5.598;2024-01-15T06:44:41;1.00;99.90
18930;DHT22;43305;52.186;5.598;2024-01-15T06:47:09;1.00;99.90
18930;DHT22;43305;52.186;5.598;2024-01-15T06:49:36;0.90;99.90
18930;DHT22;43305;52.186;5.598;2024-01-15T06:52:06;0.90;99.90
18930;DHT22;43305;52.186;5.598;2024-01-15T06:54:36;0.90;99.90
18930;DHT22;43305;52.186;5.598;2024-01-15T06:57:03;0.90;99.90
18930;DHT22;43305;52.186;5.598;2024-01-15T06:59:33;0.80;99.90
18930;DHT22;43305;52.186;5.598;2024-01-15T07:02:01;0.80;99.90
18930;DHT22;43305;52.186;5.598;2024-01-15T07:04:28;0.80;99.90
18930;DHT22;43305;52.186;5.598;2024-01-15T07:06:55;0.80;99.90
18930;DHT22;43305;52.186;5.598;2024-01-15T07:09:22;0.80;99.90
18930;DHT22;43305;52.186;5.598;2024-01-15T07:11:49;0.80;99.90
18930;DHT22;43305;52.186;5.598;2024-01-15T07:14:16;0.80;99.90
18930;DHT22;43305;52.186;5.598;2024-01-15T07:16:44;0.80;99.90
18930;DHT22;43305;52.186;5.598;2024-01-15T07:19:11;0.80;99.90
18930;DHT22;43305;52.186;5.598;2024-01-15T07:21:38;0.80;99.90
18930;DHT22;43305;52.186;5.598;2024-01-15T07:24:08;0.80;99.90
18930;DHT22;43305;52.186;5.598;2024-01-15T07:26:35;0.80;99.90
18930;DHT22;43305;52.186;5.598;2024-01-15T07:29:01;0.80;99.90
18930;DHT22;43305;52.186;5.598;2024-01-15T07:31:31;0.80;99.90
18930;DHT22;43305;52.186;5.598;2024-01-15T07:34:00;0.80;99.90
18930;DHT22;43305;52.186;5.598;2024-01-15T07:36:26;0.90;99.90
18930;DHT22;43305;52.186;5.598;2024-01-15T07:38:53;0.80;99.90
18930;DHT22;43305;52.186;5.598;2024-01-15T07:41:20;0.80;99.90
18930;DHT22;43305;52.186;5.598;2024-01-15T07:43:47;0.80;99.90
18930;DHT22;43305;52.186;5.598;2024-01-15T07:46:14;0.80;99.90
18930;DHT22;43305;52.186;5.598;2024-01-15T07:48:41;0.80;99.90
18930;DHT22;43305;52.186;5.598;2024-01-15T07:51:10;0.80;99.90
18930;DHT22;43305;52.186;5.598;2024-01-15T07:53:37;0.90;99.90
18930;DHT22;43305;52.186;5.598;2024-01-15T07:56:04;0.90;99.90
18930;DHT22;43305;52.186;5.598;2024-01-15T07:58:31;0.90;99.90
18930;DHT22;43305;52.186;5.598;2024-01-15T08:00:57;0.90;99.90
18930;DHT22;43305;52.186;5.598;2024-01-15T08:03:24;0.90;99.90
18930;DHT22;43305;52.186;5.598;2024-01-15T08:05:51;0.90;99.90
18930;DHT22;43305;52.186;5.598;2024-01-15T08:08:21;0.90;99.90
18930;DHT22;43305;52.186;5.598;2024-01-15T08:10:48;0.90;99.90
18930;DHT22;43305;52.186;5.598;2024-01-15T08:13:15;0.90;99.90
18930;DHT22;43305;52.186;5.598;2024-01-15T08:15:42;0.90;99.90
18930;DHT22;43305;52.186;5.598;2024-01-15T08:18:09;0.90;99.90
18930;DHT22;43305;52.186;5.598;2024-01-15T08:20:36;0.90;99.90
18930;DHT22;43305;52.186;5.598;2024-01-15T08:23:04;0.90;99.90
18930;DHT22;43305;52.186;5.598;2024-01-15T08:25:32;0.90;99.90
18930;DHT22;43305;52.186;5.598;2024-01-15T08:28:00;0.80;99.90
18930;DHT22;43305;52.186;5.598;2024-01-15T08:30:27;0.80;99.90
18930;DHT22;43305;52.186;5.598;2024-01-15T08:32:55;0.80;99.90
18930;DHT22;43305;52.186;5.598;2024-01-15T08:35:22;0.90;99.90
18930;DHT22;43305;52.186;5.598;2024-01-15T08:37:50;0.90;99.90
18930;DHT22;43305;52.186;5.598;2024-01-15T08:40:17;0.90;99.90
18930;DHT22;43305;52.186;5.598;2024-01-15T08:42:45;0.90;99.90
18930;DHT22;43305;52.186;5.598;2024-01-15T08:45:12;0.90;99.90
18930;DHT22;43305;52.186;5.598;2024-01-15T08:47:39;0.90;99.90
18930;DHT22;43305;52.186;5.598;2024-01-15T08:50:07;0.90;99.90
18930;DHT22;43305;52.186;5.598;2024-01-15T08:52:35;0.90;99.90
18930;DHT22;43305;52.186;5.598;2024-01-15T08:55:03;0.90;99.90
18930;DHT22;43305;52.186;5.598;2024-01-15T08:57:35;0.90;99.90
18930;DHT22;43305;52.186;5.598;2024-01-15T09:00:06;0.90;99.90
18930;DHT22;43305;52.186;5.598;2024-01-15T09:02:34;1.00;99.90
18930;DHT22;43305;52.186;5.598;2024-01-15T09:05:01;1.00;99.90
18930;DHT22;43305;52.186;5.598;2024-01-15T09:07:32;1.10;99.90
18930;DHT22;43305;52.186;5.598;2024-01-15T09:10:01;1.10;99.90
18930;DHT22;43305;52.186;5.598;2024-01-15T09:12:29;1.20;99.90
18930;DHT22;43305;52.186;5.598;2024-01-15T09:14:56;1.40;99.90
18930;DHT22;43305;52.186;5.598;2024-01-15T09:17:24;1.60;99.90
18930;DHT22;43305;52.186;5.598;2024-01-15T09:19:51;1.50;99.90
18930;DHT22;43305;52.186;5.598;2024-01-15T09:22:18;1.50;99.90
18930;DHT22;43305;52.186;5.598;2024-01-15T09:24:44;1.40;99.90
18930;DHT22;43305;52.186;5.598;2024-01-15T09:27:11;1.40;99.90
18930;DHT22;43305;52.186;5.598;2024-01-15T09:29:38;1.50;99.90
18930;DHT22;43305;52.186;5.598;2024-01-15T09:32:07;1.60;99.90
18930;DHT22;43305;52.186;5.598;2024-01-15T09:34:35;1.60;99.90
18930;DHT22;43305;52.186;5.598;2024-01-15T09:37:03;1.50;99.90
18930;DHT22;43305;52.186;5.598;2024-01-15T09:39:30;1.50;99.90
18930;DHT22;43305;52.186;5.598;2024-01-15T09:41:57;1.40;99.90
18930;DHT22;43305;52.186;5.598;2024-01-15T09:44:25;1.40;99.90
18930;DHT22;43305;52.186;5.598;2024-01-15T09:46:53;1.40;99.90
18930;DHT22;43305;52.186;5.598;2024-01-15T09:49:21;1.40;99.90
18930;DHT22;43305;52.186;5.598;2024-01-15T09:51:50;1.60;99.90
18930;DHT22;43305;52.186;5.598;2024-01-15T09:54:17;1.90;99.90
18930;DHT22;43305;52.186;5.598;2024-01-15T09:56:45;2.30;99.90
18930;DHT22;43305;52.186;5.598;2024-01-15T09:59:15;2.40;99.90
18930;DHT22;43305;52.186;5.598;2024-01-15T10:01:43;2.20;99.90
18930;DHT22;43305;52.186;5.598;2024-01-15T10:04:10;2.10;99.90
18930;DHT22;43305;52.186;5.598;2024-01-15T10:06:38;1.90;99.90
18930;DHT22;43305;52.186;5.598;2024-01-15T10:09:07;1.80;99.90
18930;DHT22;43305;52.186;5.598;2024-01-15T10:11:34;1.80;99.90
18930;DHT22;43305;52.186;5.598;2024-01-15T10:14:03;1.80;99.90
18930;DHT22;43305;52.186;5.598;2024-01-15T10:16:31;1.80;99.90
18930;DHT22;43305;52.186;5.598;2024-01-15T10:18:57;2.00;99.90
18930;DHT22;43305;52.186;5.598;2024-01-15T10:21:24;2.10;99.90
18930;DHT22;43305;52.186;5.598;2024-01-15T10:23:52;2.20;99.90
18930;DHT22;43305;52.186;5.598;2024-01-15T10:26:25;2.10;99.90
18930;DHT22;43305;52.186;5.598;2024-01-15T10:28:52;2.10;99.90
18930;DHT22;43305;52.186;5.598;2024-01-15T10:31:19;2.10;99.90
18930;DHT22;43305;52.186;5.598;2024-01-15T10:33:47;2.10;99.90
18930;DHT22;43305;52.186;5.598;2024-01-15T10:36:16;2.10;99.90
18930;DHT22;43305;52.186;5.598;2024-01-15T10:38:43;2.00;99.90
18930;DHT22;43305;52.186;5.598;2024-01-15T10:41:11;1.90;99.90
18930;DHT22;43305;52.186;5.598;2024-01-15T10:43:39;1.90;99.90
18930;DHT22;43305;52.186;5.598;2024-01-15T10:46:06;1.80;99.90
18930;DHT22;43305;52.186;5.598;2024-01-15T10:48:34;1.80;99.90
18930;DHT22;43305;52.186;5.598;2024-01-15T10:51:01;1.70;99.90
18930;DHT22;43305;52.186;5.598;2024-01-15T10:53:35;1.70;99.90
18930;DHT22;43305;52.186;5.598;2024-01-15T10:56:05;1.80;99.90
18930;DHT22;43305;52.186;5.598;2024-01-15T10:58:33;1.90;99.90
18930;DHT22;43305;52.186;5.598;2024-01-15T11:01:02;1.90;99.90
18930;DHT22;43305;52.186;5.598;2024-01-15T11:03:32;1.80;99.90
18930;DHT22;43305;52.186;5.598;2024-01-15T11:05:59;2.00;99.90
18930;DHT22;43305;52.186;5.598;2024-01-15T11:08:26;2.10;99.90
18930;DHT22;43305;52.186;5.598;2024-01-15T11:10:53;2.30;99.90
18930;DHT22;43305;52.186;5.598;2024-01-15T11:13:21;2.50;99.90
18930;DHT22;43305;52.186;5.598;2024-01-15T11:16:05;2.80;99.90
18930;DHT22;43305;52.186;5.598;2024-01-15T11:18:35;3.10;99.90
18930;DHT22;43305;52.186;5.598;2024-01-15T11:21:22;3.00;99.90
18930;DHT22;43305;52.186;5.598;2024-01-15T11:23:52;2.90;99.90
18930;DHT22;43305;52.186;5.598;2024-01-15T11:26:30;2.80;99.90
18930;DHT22;43305;52.186;5.598;2024-01-15T11:28:58;2.70;99.90
18930;DHT22;43305;52.186;5.598;2024-01-15T11:31:56;2.70;99.90
18930;DHT22;43305;52.186;5.598;2024-01-15T11:34:17;2.70;99.90
18930;DHT22;43305;52.186;5.598;2024-01-15T11:37:01;2.70;99.90
18930;DHT22;43305;52.186;5.598;2024-01-15T11:39:39;2.80;99.90
18930;DHT22;43305;52.186;5.598;2024-01-15T11:42:09;3.00;99.90
18930;DHT22;43305;52.186;5.598;2024-01-15T11:44:37;3.20;99.90
18930;DHT22;43305;52.186;5.598;2024-01-15T11:47:06;3.40;99.90
18930;DHT22;43305;52.186;5.598;2024-01-15T11:50:00;3.50;99.90
18930;DHT22;43305;52.186;5.598;2024-01-15T11:52:32;3.60;99.90
18930;DHT22;43305;52.186;5.598;2024-01-15T11:55:11;3.80;99.90
18930;DHT22;43305;52.186;5.598;2024-01-15T11:57:41;3.90;99.90
18930;DHT22;43305;52.186;5.598;2024-01-15T12:00:11;3.80;99.90
18930;DHT22;43305;52.186;5.598;2024-01-15T12:02:40;3.50;99.90
18930;DHT22;43305;52.186;5.598;2024-01-15T12:05:08;3.40;99.90
18930;DHT22;43305;52.186;5.598;2024-01-15T12:07:35;3.30;99.90
18930;DHT22;43305;52.186;5.598;2024-01-15T12:10:02;3.20;99.90
18930;DHT22;43305;52.186;5.598;2024-01-15T12:12:39;3.10;99.90
18930;DHT22;43305;52.186;5.598;2024-01-15T12:15:11;2.90;99.90
18930;DHT22;43305;52.186;5.598;2024-01-15T12:17:39;2.60;99.90
18930;DHT22;43305;52.186;5.598;2024-01-15T12:20:07;2.30;99.90
18930;DHT22;43305;52.186;5.598;2024-01-15T12:22:34;2.20;99.90
18930;DHT22;43305;52.186;5.598;2024-01-15T12:25:02;2.20;99.90
18930;DHT22;43305;52.186;5.598;2024-01-15T12:27:29;2.20;99.90
18930;DHT22;43305;52.186;5.598;2024-01-15T12:29:58;2.20;99.90
18930;DHT22;43305;52.186;5.598;2024-01-15T12:32:25;2.30;99.90
18930;DHT22;43305;52.186;5.598;2024-01-15T12:34:53;2.30;99.90
18930;DHT22;43305;52.186;5.598;2024-01-15T12:37:21;2.20;99.90
18930;DHT22;43305;52.186;5.598;2024-01-15T12:39:48;2.60;99.90
18930;DHT22;43305;52.186;5.598;2024-01-15T12:42:15;3.40;99.90
18930;DHT22;43305;52.186;5.598;2024-01-15T12:44:42;4.10;99.90
18930;DHT22;43305;52.186;5.598;2024-01-15T12:47:09;4.80;99.90
18930;DHT22;43305;52.186;5.598;2024-01-15T12:49:36;4.50;99.90
18930;DHT22;43305;52.186;5.598;2024-01-15T12:52:08;3.90;99.90
18930;DHT22;43305;52.186;5.598;2024-01-15T12:54:35;3.40;99.90
18930;DHT22;43305;52.186;5.598;2024-01-15T12:57:03;3.10;99.90
18930;DHT22;43305;52.186;5.598;2024-01-15T12:59:30;3.00;99.90
18930;DHT22;43305;52.186;5.598;2024-01-15T13:01:57;2.80;99.90
18930;DHT22;43305;52.186;5.598;2024-01-15T13:04:24;2.60;99.90
18930;DHT22;43305;52.186;5.598;2024-01-15T13:06:51;2.60;99.90
18930;DHT22;43305;52.186;5.598;2024-01-15T13:09:20;2.60;99.90
18930;DHT22;43305;52.186;5.598;2024-01-15T13:11:47;2.60;99.90
18930;DHT22;43305;52.186;5.598;2024-01-15T13:14:14;2.50;99.90
18930;DHT22;43305;52.186;5.598;2024-01-15T13:16:41;2.50;99.90
18930;DHT22;43305;52.186;5.598;2024-01-15T13:19:09;2.40;99.90
18930;DHT22;43305;52.186;5.598;2024-01-15T13:21:36;2.30;99.90
18930;DHT22;43305;52.186;5.598;2024-01-15T13:24:03;2.30;99.90
18930;DHT22;43305;52.186;5.598;2024-01-15T13:26:33;2.20;99.90
18930;DHT22;43305;52.186;5.598;2024-01-15T13:29:00;2.20;99.90
18930;DHT22;43305;52.186;5.598;2024-01-15T13:31:27;2.10;99.90
18930;DHT22;43305;52.186;5.598;2024-01-15T13:33:54;2.10;99.90
18930;DHT22;43305;52.186;5.598;2024-01-15T13:36:21;2.30;99.90
18930;DHT22;43305;52.186;5.598;2024-01-15T13:38:48;2.90;99.90
18930;DHT22;43305;52.186;5.598;2024-01-15T13:41:15;3.60;99.90
18930;DHT22;43305;52.186;5.598;2024-01-15T13:43:46;4.30;99.90
18930;DHT22;43305;52.186;5.598;2024-01-15T13:46:13;4.80;99.90
18930;DHT22;43305;52.186;5.598;2024-01-15T13:48:40;5.00;99.90
18930;DHT22;43305;52.186;5.598;2024-01-15T13:51:07;5.10;99.90
18930;DHT22;43305;52.186;5.598;2024-01-15T13:53:33;5.40;99.90
18930;DHT22;43305;52.186;5.598;2024-01-15T13:56:00;5.40;99.90
18930;DHT22;43305;52.186;5.598;2024-01-15T13:58:28;5.10;99.90
18930;DHT22;43305;52.186;5.598;2024-01-15T14:00:56;4.40;99.90
18930;DHT22;43305;52.186;5.598;2024-01-15T14:03:23;4.00;99.90
18930;DHT22;43305;52.186;5.598;2024-01-15T14:05:51;3.40;99.90
18930;DHT22;43305;52.186;5.598;2024-01-15T14:08:18;3.20;99.90
18930;DHT22;43305;52.186;5.598;2024-01-15T14:10:45;3.10;99.90
18930;DHT22;43305;52.186;5.598;2024-01-15T14:13:12;2.90;99.90
18930;DHT22;43305;52.186;5.598;2024-01-15T14:15:38;2.80;99.90
18930;DHT22;43305;52.186;5.598;2024-01-15T14:18:07;2.80;99.90
18930;DHT22;43305;52.186;5.598;2024-01-15T14:20:34;2.90;99.90
18930;DHT22;43305;52.186;5.598;2024-01-15T14:23:00;2.90;99.90
18930;DHT22;43305;52.186;5.598;2024-01-15T14:25:29;2.90;99.90
18930;DHT22;43305;52.186;5.598;2024-01-15T14:27:56;2.90;99.90
18930;DHT22;43305;52.186;5.598;2024-01-15T14:30:24;2.90;99.90
18930;DHT22;43305;52.186;5.598;2024-01-15T14:32:50;2.70;99.90
18930;DHT22;43305;52.186;5.598;2024-01-15T14:35:19;2.60;99.90
18930;DHT22;43305;52.186;5.598;2024-01-15T14:37:46;2.80;99.90
18930;DHT22;43305;52.186;5.598;2024-01-15T14:40:14;2.90;99.90
18930;DHT22;43305;52.186;5.598;2024-01-15T14:42:41;3.00;99.90
18930;DHT22;43305;52.186;5.598;2024-01-15T14:45:09;3.10;99.90
18930;DHT22;43305;52.186;5.598;2024-01-15T14:47:37;3.10;99.90
18930;DHT22;43305;52.186;5.598;2024-01-15T14:50:05;3.00;99.90
18930;DHT22;43305;52.186;5.598;2024-01-15T14:52:34;3.00;99.90
18930;DHT22;43305;52.186;5.598;2024-01-15T14:55:01;2.90;99.90
18930;DHT22;43305;52.186;5.598;2024-01-15T14:57:31;2.80;99.90
18930;DHT22;43305;52.186;5.598;2024-01-15T15:00:07;2.70;99.90
18930;DHT22;43305;52.186;5.598;2024-01-15T15:02:35;2.70;99.90
18930;DHT22;43305;52.186;5.598;2024-01-15T15:05:06;2.60;99.90
18930;DHT22;43305;52.186;5.598;2024-01-15T15:07:35;2.60;99.90
18930;DHT22;43305;52.186;5.598;2024-01-15T15:10:03;2.50;99.90
18930;DHT22;43305;52.186;5.598;2024-01-15T15:12:30;2.50;99.90
18930;DHT22;43305;52.186;5.598;2024-01-15T15:14:57;2.40;99.90
18930;DHT22;43305;52.186;5.598;2024-01-15T15:17:24;2.40;99.90
18930;DHT22;43305;52.186;5.598;2024-01-15T15:19:51;2.30;99.90
18930;DHT22;43305;52.186;5.598;2024-01-15T15:22:19;2.30;99.90
18930;DHT22;43305;52.186;5.598;2024-01-15T15:24:47;2.30;99.90
18930;DHT22;43305;52.186;5.598;2024-01-15T15:27:14;2.20;99.90
18930;DHT22;43305;52.186;5.598;2024-01-15T15:29:41;2.20;99.90
18930;DHT22;43305;52.186;5.598;2024-01-15T15:32:07;2.20;99.90
18930;DHT22;43305;52.186;5.598;2024-01-15T15:34:34;2.10;99.90
18930;DHT22;43305;52.186;5.598;2024-01-15T15:37:01;2.10;99.90
18930;DHT22;43305;52.186;5.598;2024-01-15T15:39:28;2.10;99.90
18930;DHT22;43305;52.186;5.598;2024-01-15T15:41:57;2.10;99.90
18930;DHT22;43305;52.186;5.598;2024-01-15T15:44:24;2.20;99.90
18930;DHT22;43305;52.186;5.598;2024-01-15T15:46:51;2.10;99.90
18930;DHT22;43305;52.186;5.598;2024-01-15T15:49:18;2.20;99.90